sensor_id;sensor_type;location;lat;lon;timestamp;temperature;humidity
23703;DHT22;12030;50.376;8.762;2023-06-22T00:02:13;20.60;99.90
23703;DHT22;12030;50.376;8.762;2023-06-22T00:04:39;20.60;99.90
23703;DHT22;12030;50.376;8.762;2023-06-22T00:07:05;20.60;99.90
23703;DHT22;12030;50.376;8.762;2023-06-22T00:09:31;20.70;99.90
23703;DHT22;12030;50.376;8.762;2023-06-22T00:11:56;20.80;99.90
23703;DHT22;12030;50.376;8.762;2023-06-22T00:14:22;20.80;99.90
23703;DHT22;12030;50.376;8.762;2023-06-22T00:16:48;20.80;99.90
23703;DHT22;12030;50.376;8.762;2023-06-22T00:19:17;20.90;99.90
23703;DHT22;12030;50.376;8.762;2023-06-22T00:21:44;21.00;99.90
23703;DHT22;12030;50.376;8.762;2023-06-22T00:24:12;20.90;99.90
23703;DHT22;12030;50.376;8.762;2023-06-22T00:26:38;21.00;99.90
23703;DHT22;12030;50.376;8.762;2023-06-22T00:29:03;21.00;99.90
23703;DHT22;12030;50.376;8.762;2023-06-22T00:31:29;20.90;99.90
23703;DHT22;12030;50.376;8.762;2023-06-22T00:33:54;21.00;99.90
23703;DHT22;12030;50.376;8.762;2023-06-22T00:36:20;21.00;99.90
23703;DHT22;12030;50.376;8.762;2023-06-22T00:38:45;20.90;99.90
23703;DHT22;12030;50.376;8.762;2023-06-22T00:41:11;20.90;99.90
23703;DHT22;12030;50.376;8.762;2023-06-22T00:43:37;20.90;99.90
23703;DHT22;12030;50.376;8.762;2023-06-22T00:46:02;20.80;99.90
23703;DHT22;12030;50.376;8.762;2023-06-22T00:48:28;20.80;99.90
23703;DHT22;12030;50.376;8.762;2023-06-22T00:50:54;20.80;99.90
23703;DHT22;12030;50.376;8.762;2023-06-22T00:53:21;20.80;99.90
23703;DHT22;12030;50.376;8.762;2023-06-22T00:55:48;21.80;99.90
23703;DHT22;12030;50.376;8.762;2023-06-22T00:58:17;20.80;99.90
23703;DHT22;12030;50.376;8.762;2023-06-22T01:00:43;20.80;99.90
23703;DHT22;12030;50.376;8.762;2023-06-22T01:03:09;20.80;99.90
23703;DHT22;12030;50.376;8.762;2023-06-22T01:05:35;20.80;99.90
23703;DHT22;12030;50.376;8.762;2023-06-22T01:16:00;21.00;99.90
23703;DHT22;12030;50.376;8.762;2023-06-22T01:18:29;21.00;99.90
23703;DHT22;12030;50.376;8.762;2023-06-22T01:20:56;21.00;99.90
23703;DHT22;12030;50.376;8.762;2023-06-22T01:23:44;21.00;99.90
23703;DHT22;12030;50.376;8.762;2023-06-22T01:26:19;20.90;99.90
23703;DHT22;12030;50.376;8.762;2023-06-22T01:28:48;20.90;99.90
23703;DHT22;12030;50.376;8.762;2023-06-22T01:31:17;20.90;99.90
23703;DHT22;12030;50.376;8.762;2023-06-22T01:33:46;20.90;99.90
23703;DHT22;12030;50.376;8.762;2023-06-22T01:36:14;20.90;99.90
23703;DHT22;12030;50.376;8.762;2023-06-22T01:38:40;21.00;99.90
23703;DHT22;12030;50.376;8.762;2023-06-22T01:41:07;20.80;99.90
23703;DHT22;12030;50.376;8.762;2023-06-22T01:43:33;20.80;99.90
23703;DHT22;12030;50.376;8.762;2023-06-22T01:46:01;20.80;99.90
23703;DHT22;12030;50.376;8.762;2023-06-22T01:48:27;20.80;99.90
23703;DHT22;12030;50.376;8.762;2023-06-22T01:50:54;20.70;99.90
23703;DHT22;12030;50.376;8.762;2023-06-22T01:53:24;20.70;99.90
23703;DHT22;12030;50.376;8.762;2023-06-22T01:55:50;20.70;99.90
23703;DHT22;12030;50.376;8.762;2023-06-22T01:58:16;20.60;99.90
23703;DHT22;12030;50.376;8.762;2023-06-22T02:00:48;20.60;99.90
23703;DHT22;12030;50.376;8.762;2023-06-22T02:03:21;20.60;99.90
23703;DHT22;12030;50.376;8.762;2023-06-22T02:05:51;20.50;99.90
23703;DHT22;12030;50.376;8.762;2023-06-22T02:08:21;20.60;99.90
23703;DHT22;12030;50.376;8.762;2023-06-22T02:10:48;20.50;99.90
23703;DHT22;12030;50.376;8.762;2023-06-22T02:13:14;20.60;99.90
23703;DHT22;12030;50.376;8.762;2023-06-22T02:15:41;20.40;99.90
23703;DHT22;12030;50.376;8.762;2023-06-22T02:18:07;20.40;99.90
23703;DHT22;12030;50.376;8.762;2023-06-22T02:20:35;20.30;99.90
23703;DHT22;12030;50.376;8.762;2023-06-22T02:23:01;20.30;99.90
23703;DHT22;12030;50.376;8.762;2023-06-22T02:25:26;20.30;99.90
23703;DHT22;12030;50.376;8.762;2023-06-22T02:27:52;20.20;99.90
23703;DHT22;12030;50.376;8.762;2023-06-22T02:30:17;20.20;99.90
23703;DHT22;12030;50.376;8.762;2023-06-22T02:32:43;20.10;99.90
23703;DHT22;12030;50.376;8.762;2023-06-22T02:35:09;20.00;99.90
23703;DHT22;12030;50.376;8.762;2023-06-22T02:37:38;19.90;99.90
23703;DHT22;12030;50.376;8.762;2023-06-22T02:40:07;19.90;99.90
23703;DHT22;12030;50.376;8.762;2023-06-22T02:42:34;20.00;99.90
23703;DHT22;12030;50.376;8.762;2023-06-22T02:45:00;20.00;99.90
23703;DHT22;12030;50.376;8.762;2023-06-22T02:47:26;19.00;99.90
23703;DHT22;12030;50.376;8.762;2023-06-22T02:49:51;20.00;99.90
23703;DHT22;12030;50.376;8.762;2023-06-22T02:52:17;21.10;99.90
23703;DHT22;12030;50.376;8.762;2023-06-22T02:54:42;20.00;99.90
23703;DHT22;12030;50.376;8.762;2023-06-22T02:57:10;20.00;99.90
23703;DHT22;12030;50.376;8.762;2023-06-22T02:59:41;19.90;99.90
23703;DHT22;12030;50.376;8.762;2023-06-22T03:02:08;19.90;99.90
23703;DHT22;12030;50.376;8.762;2023-06-22T03:04:34;19.90;99.90
23703;DHT22;12030;50.376;8.762;2023-06-22T03:07:00;19.90;99.90
23703;DHT22;12030;50.376;8.762;2023-06-22T03:09:27;19.90;99.90
23703;DHT22;12030;50.376;8.762;2023-06-22T03:11:56;19.80;99.90
23703;DHT22;12030;50.376;8.762;2023-06-22T03:14:22;19.80;99.90
23703;DHT22;12030;50.376;8.762;2023-06-22T03:16:47;19.90;99.90
23703;DHT22;12030;50.376;8.762;2023-06-22T03:19:13;19.90;99.90
23703;DHT22;12030;50.376;8.762;2023-06-22T03:21:40;19.80;99.90
23703;DHT22;12030;50.376;8.762;2023-06-22T03:24:06;19.70;99.90
23703;DHT22;12030;50.376;8.762;2023-06-22T03:26:32;19.70;99.90
23703;DHT22;12030;50.376;8.762;2023-06-22T03:28:58;19.60;99.90
23703;DHT22;12030;50.376;8.762;2023-06-22T03:31:23;19.70;99.90
23703;DHT22;12030;50.376;8.762;2023-06-22T03:33:50;19.60;99.90
23703;DHT22;12030;50.376;8.762;2023-06-22T03:36:16;19.70;99.90
23703;DHT22;12030;50.376;8.762;2023-06-22T03:38:46;19.70;99.90
23703;DHT22;12030;50.376;8.762;2023-06-22T03:41:12;19.60;99.90
23703;DHT22;12030;50.376;8.762;2023-06-22T03:43:37;19.50;99.90
23703;DHT22;12030;50.376;8.762;2023-06-22T03:46:03;19.60;99.90
23703;DHT22;12030;50.376;8.762;2023-06-22T03:48:28;19.60;99.90
23703;DHT22;12030;50.376;8.762;2023-06-22T03:50:54;19.60;99.90
23703;DHT22;12030;50.376;8.762;2023-06-22T03:53:19;19.50;99.90
23703;DHT22;12030;50.376;8.762;2023-06-22T03:55:53;19.60;99.90
23703;DHT22;12030;50.376;8.762;2023-06-22T03:58:19;19.60;99.90
23703;DHT22;12030;50.376;8.762;2023-06-22T04:00:50;19.60;99.90
23703;DHT22;12030;50.376;8.762;2023-06-22T04:03:15;19.60;99.90
23703;DHT22;12030;50.376;8.762;2023-06-22T04:05:41;19.70;99.90
23703;DHT22;12030;50.376;8.762;2023-06-22T04:08:07;19.60;99.90
23703;DHT22;12030;50.376;8.762;2023-06-22T04:10:33;19.70;99.90
23703;DHT22;12030;50.376;8.762;2023-06-22T04:13:00;19.60;99.90
23703;DHT22;12030;50.376;8.762;2023-06-22T04:15:25;19.70;99.90
23703;DHT22;12030;50.376;8.762;2023-06-22T04:17:51;19.60;99.90
23703;DHT22;12030;50.376;8.762;2023-06-22T04:20:16;19.60;99.90
23703;DHT22;12030;50.376;8.762;2023-06-22T04:22:42;19.60;99.90
23703;DHT22;12030;50.376;8.762;2023-06-22T04:25:08;19.60;99.90
23703;DHT22;12030;50.376;8.762;2023-06-22T04:27:33;19.60;99.90
23703;DHT22;12030;50.376;8.762;2023-06-22T04:30:06;19.60;99.90
23703;DHT22;12030;50.376;8.762;2023-06-22T04:32:32;19.70;99.90
23703;DHT22;12030;50.376;8.762;2023-06-22T04:34:58;19.70;99.90
23703;DHT22;12030;50.376;8.762;2023-06-22T04:37:25;19.70;99.90
23703;DHT22;12030;50.376;8.762;2023-06-22T04:39:51;19.70;99.90
23703;DHT22;12030;50.376;8.762;2023-06-22T04:42:17;19.80;99.90
23703;DHT22;12030;50.376;8.762;2023-06-22T04:44:43;19.90;99.90
23703;DHT22;12030;50.376;8.762;2023-06-22T04:47:08;20.00;99.90
23703;DHT22;12030;50.376;8.762;2023-06-22T04:49:35;20.00;99.90
23703;DHT22;12030;50.376;8.762;2023-06-22T04:52:07;20.00;99.90
23703;DHT22;12030;50.376;8.762;2023-06-22T04:54:34;20.10;99.90
23703;DHT22;12030;50.376;8.762;2023-06-22T04:57:00;20.20;99.90
23703;DHT22;12030;50.376;8.762;2023-06-22T04:59:28;20.20;99.90
23703;DHT22;12030;50.376;8.762;2023-06-22T05:01:59;20.30;99.90
23703;DHT22;12030;50.376;8.762;2023-06-22T05:04:25;20.30;99.90
23703;DHT22;12030;50.376;8.762;2023-06-22T05:06:51;20.40;99.90
23703;DHT22;12030;50.376;8.762;2023-06-22T05:09:18;20.30;99.90
23703;DHT22;12030;50.376;8.762;2023-06-22T05:11:44;20.40;99.90
23703;DHT22;12030;50.376;8.762;2023-06-22T05:14:09;20.40;99.90
23703;DHT22;12030;50.376;8.762;2023-06-22T05:16:36;20.50;99.90
23703;DHT22;12030;50.376;8.762;2023-06-22T05:19:02;20.50;99.90
23703;DHT22;12030;50.376;8.762;2023-06-22T05:21:29;20.60;99.90
23703;DHT22;12030;50.376;8.762;2023-06-22T05:23:55;20.60;99.90
23703;DHT22;12030;50.376;8.762;2023-06-22T05:26:22;20.70;99.90
23703;DHT22;12030;50.376;8.762;2023-06-22T05:28:48;20.70;99.90
23703;DHT22;12030;50.376;8.762;2023-06-22T05:31:14;20.70;99.90
23703;DHT22;12030;50.376;8.762;2023-06-22T05:33:41;20.80;99.90
23703;DHT22;12030;50.376;8.762;2023-06-22T05:36:07;20.80;99.90
23703;DHT22;12030;50.376;8.762;2023-06-22T05:38:33;20.80;99.90
23703;DHT22;12030;50.376;8.762;2023-06-22T05:40:58;20.90;99.90
23703;DHT22;12030;50.376;8.762;2023-06-22T05:43:24;21.00;99.90
23703;DHT22;12030;50.376;8.762;2023-06-22T05:45:50;21.10;99.90
23703;DHT22;12030;50.376;8.762;2023-06-22T05:48:15;21.20;99.90
23703;DHT22;12030;50.376;8.762;2023-06-22T05:50:41;21.20;99.90
23703;DHT22;12030;50.376;8.762;2023-06-22T05:53:07;21.30;99.90
23703;DHT22;12030;50.376;8.762;2023-06-22T05:55:32;21.30;99.90
23703;DHT22;12030;50.376;8.762;2023-06-22T05:57:58;21.30;99.90
23703;DHT22;12030;50.376;8.762;2023-06-22T06:00:23;21.40;99.90
23703;DHT22;12030;50.376;8.762;2023-06-22T06:02:49;21.40;99.90
23703;DHT22;12030;50.376;8.762;2023-06-22T06:05:15;21.40;99.90
23703;DHT22;12030;50.376;8.762;2023-06-22T06:07:42;21.40;99.90
23703;DHT22;12030;50.376;8.762;2023-06-22T06:10:09;21.40;99.90
23703;DHT22;12030;50.376;8.762;2023-06-22T06:12:34;21.50;99.90
23703;DHT22;12030;50.376;8.762;2023-06-22T06:15:00;21.60;99.90
23703;DHT22;12030;50.376;8.762;2023-06-22T06:17:26;21.70;99.90
23703;DHT22;12030;50.376;8.762;2023-06-22T06:19:51;21.80;99.90
23703;DHT22;12030;50.376;8.762;2023-06-22T06:22:18;21.90;99.90
23703;DHT22;12030;50.376;8.762;2023-06-22T06:24:45;21.90;99.90
23703;DHT22;12030;50.376;8.762;2023-06-22T06:27:11;22.00;99.90
23703;DHT22;12030;50.376;8.762;2023-06-22T06:29:36;22.10;99.90
23703;DHT22;12030;50.376;8.762;2023-06-22T06:32:02;22.20;99.90
23703;DHT22;12030;50.376;8.762;2023-06-22T06:34:27;22.20;99.90
23703;DHT22;12030;50.376;8.762;2023-06-22T06:36:53;22.30;99.90
23703;DHT22;12030;50.376;8.762;2023-06-22T06:39:18;22.30;99.90
23703;DHT22;12030;50.376;8.762;2023-06-22T06:41:44;22.40;99.90
23703;DHT22;12030;50.376;8.762;2023-06-22T06:44:09;22.40;99.90
23703;DHT22;12030;50.376;8.762;2023-06-22T06:46:35;22.40;99.90
23703;DHT22;12030;50.376;8.762;2023-06-22T06:49:00;22.40;99.90
23703;DHT22;12030;50.376;8.762;2023-06-22T06:51:26;22.50;99.90
23703;DHT22;12030;50.376;8.762;2023-06-22T06:53:51;22.60;99.90
23703;DHT22;12030;50.376;8.762;2023-06-22T06:56:17;22.60;99.90
23703;DHT22;12030;50.376;8.762;2023-06-22T06:58:42;22.80;99.90
23703;DHT22;12030;50.376;8.762;2023-06-22T07:01:13;22.90;99.90
23703;DHT22;12030;50.376;8.762;2023-06-22T07:03:39;22.90;99.90
23703;DHT22;12030;50.376;8.762;2023-06-22T07:06:04;23.00;99.90
23703;DHT22;12030;50.376;8.762;2023-06-22T07:08:30;23.20;99.90
23703;DHT22;12030;50.376;8.762;2023-06-22T07:10:55;23.40;99.90
23703;DHT22;12030;50.376;8.762;2023-06-22T07:13:21;23.50;99.90
23703;DHT22;12030;50.376;8.762;2023-06-22T07:15:46;23.60;99.90
23703;DHT22;12030;50.376;8.762;2023-06-22T07:18:12;23.70;99.90
23703;DHT22;12030;50.376;8.762;2023-06-22T07:20:38;23.60;99.90
23703;DHT22;12030;50.376;8.762;2023-06-22T07:23:04;23.60;99.90
23703;DHT22;12030;50.376;8.762;2023-06-22T07:25:30;23.60;99.90
23703;DHT22;12030;50.376;8.762;2023-06-22T07:27:58;23.70;99.90
23703;DHT22;12030;50.376;8.762;2023-06-22T07:30:24;23.80;99.90
23703;DHT22;12030;50.376;8.762;2023-06-22T07:32:50;23.90;99.90
23703;DHT22;12030;50.376;8.762;2023-06-22T07:35:15;23.90;99.90
23703;DHT22;12030;50.376;8.762;2023-06-22T07:37:42;23.90;99.90
23703;DHT22;12030;50.376;8.762;2023-06-22T07:40:08;24.10;99.90
23703;DHT22;12030;50.376;8.762;2023-06-22T07:42:34;24.20;99.90
23703;DHT22;12030;50.376;8.762;2023-06-22T07:44:59;24.20;99.90
23703;DHT22;12030;50.376;8.762;2023-06-22T07:47:25;24.30;99.90
23703;DHT22;12030;50.376;8.762;2023-06-22T07:49:58;24.50;99.90
23703;DHT22;12030;50.376;8.762;2023-06-22T07:52:24;24.60;99.90
23703;DHT22;12030;50.376;8.762;2023-06-22T07:54:51;24.70;99.90
23703;DHT22;12030;50.376;8.762;2023-06-22T07:57:16;24.80;99.90
23703;DHT22;12030;50.376;8.762;2023-06-22T07:59:42;24.80;99.90
23703;DHT22;12030;50.376;8.762;2023-06-22T08:02:07;24.80;99.90
23703;DHT22;12030;50.376;8.762;2023-06-22T08:04:34;25.00;99.90
23703;DHT22;12030;50.376;8.762;2023-06-22T08:07:00;25.10;99.90
23703;DHT22;12030;50.376;8.762;2023-06-22T08:09:28;25.20;99.90
23703;DHT22;12030;50.376;8.762;2023-06-22T08:11:54;25.30;99.90
23703;DHT22;12030;50.376;8.762;2023-06-22T08:14:22;25.50;99.90
23703;DHT22;12030;50.376;8.762;2023-06-22T08:16:47;25.60;99.90
23703;DHT22;12030;50.376;8.762;2023-06-22T08:19:13;25.70;99.90
23703;DHT22;12030;50.376;8.762;2023-06-22T08:21:38;25.80;99.90
23703;DHT22;12030;50.376;8.762;2023-06-22T08:24:04;25.90;99.90
23703;DHT22;12030;50.376;8.762;2023-06-22T08:26:30;26.10;99.90
23703;DHT22;12030;50.376;8.762;2023-06-22T08:28:55;26.20;99.90
23703;DHT22;12030;50.376;8.762;2023-06-22T08:31:21;26.40;99.90
23703;DHT22;12030;50.376;8.762;2023-06-22T08:33:46;26.50;99.90
23703;DHT22;12030;50.376;8.762;2023-06-22T08:36:12;26.70;99.90
23703;DHT22;12030;50.376;8.762;2023-06-22T08:38:39;26.70;99.90
23703;DHT22;12030;50.376;8.762;2023-06-22T08:41:04;26.80;99.90
23703;DHT22;12030;50.376;8.762;2023-06-22T08:43:30;27.00;99.90
23703;DHT22;12030;50.376;8.762;2023-06-22T08:45:55;27.10;99.90
23703;DHT22;12030;50.376;8.762;2023-06-22T08:48:21;27.50;99.90
23703;DHT22;12030;50.376;8.762;2023-06-22T08:50:46;27.30;99.90
23703;DHT22;12030;50.376;8.762;2023-06-22T08:53:12;27.50;99.90
23703;DHT22;12030;50.376;8.762;2023-06-22T08:55:38;27.60;99.90
23703;DHT22;12030;50.376;8.762;2023-06-22T08:58:03;27.80;99.90
23703;DHT22;12030;50.376;8.762;2023-06-22T09:00:29;27.90;99.90
23703;DHT22;12030;50.376;8.762;2023-06-22T09:02:58;28.10;99.90
23703;DHT22;12030;50.376;8.762;2023-06-22T09:05:24;28.20;99.90
23703;DHT22;12030;50.376;8.762;2023-06-22T09:07:51;28.30;99.90
23703;DHT22;12030;50.376;8.762;2023-06-22T09:10:17;28.30;99.90
23703;DHT22;12030;50.376;8.762;2023-06-22T09:12:43;28.40;99.90
23703;DHT22;12030;50.376;8.762;2023-06-22T09:15:09;28.40;99.90
23703;DHT22;12030;50.376;8.762;2023-06-22T09:17:34;28.60;99.90
23703;DHT22;12030;50.376;8.762;2023-06-22T09:20:01;28.80;99.90
23703;DHT22;12030;50.376;8.762;2023-06-22T09:22:28;28.80;99.90
23703;DHT22;12030;50.376;8.762;2023-06-22T09:24:55;28.80;99.90
23703;DHT22;12030;50.376;8.762;2023-06-22T09:27:21;28.90;99.90
23703;DHT22;12030;50.376;8.762;2023-06-22T09:29:47;29.00;99.90
23703;DHT22;12030;50.376;8.762;2023-06-22T09:32:13;29.10;99.90
23703;DHT22;12030;50.376;8.762;2023-06-22T09:34:38;29.30;99.90
23703;DHT22;12030;50.376;8.762;2023-06-22T09:37:04;29.40;99.90
23703;DHT22;12030;50.376;8.762;2023-06-22T09:39:30;29.50;99.90
23703;DHT22;12030;50.376;8.762;2023-06-22T09:41:57;29.60;99.90
23703;DHT22;12030;50.376;8.762;2023-06-22T09:44:23;29.70;99.90
23703;DHT22;12030;50.376;8.762;2023-06-22T09:46:48;29.70;99.90
23703;DHT22;12030;50.376;8.762;2023-06-22T09:49:14;29.80;99.90
23703;DHT22;12030;50.376;8.762;2023-06-22T09:51:39;29.80;99.90
23703;DHT22;12030;50.376;8.762;2023-06-22T09:54:05;29.90;99.90
23703;DHT22;12030;50.376;8.762;2023-06-22T09:56:30;30.10;99.90
23703;DHT22;12030;50.376;8.762;2023-06-22T09:58:56;30.30;99.90
23703;DHT22;12030;50.376;8.762;2023-06-22T10:01:22;30.20;99.90
23703;DHT22;12030;50.376;8.762;2023-06-22T10:03:48;29.60;99.90
23703;DHT22;12030;50.376;8.762;2023-06-22T10:06:14;30.20;99.90
23703;DHT22;12030;50.376;8.762;2023-06-22T10:08:40;30.30;99.90
23703;DHT22;12030;50.376;8.762;2023-06-22T10:11:06;30.40;99.90
23703;DHT22;12030;50.376;8.762;2023-06-22T10:13:31;30.40;99.90
23703;DHT22;12030;50.376;8.762;2023-06-22T10:15:57;30.40;99.80
23703;DHT22;12030;50.376;8.762;2023-06-22T10:18:22;30.60;99.90
23703;DHT22;12030;50.376;8.762;2023-06-22T10:20:49;30.60;99.40
23703;DHT22;12030;50.376;8.762;2023-06-22T10:23:18;30.90;99.80
23703;DHT22;12030;50.376;8.762;2023-06-22T10:25:44;30.90;99.90
23703;DHT22;12030;50.376;8.762;2023-06-22T10:28:09;30.90;99.90
23703;DHT22;12030;50.376;8.762;2023-06-22T10:30:35;30.80;99.90
23703;DHT22;12030;50.376;8.762;2023-06-22T10:33:00;30.70;99.90
23703;DHT22;12030;50.376;8.762;2023-06-22T10:35:26;30.80;99.90
23703;DHT22;12030;50.376;8.762;2023-06-22T10:37:52;30.90;99.90
23703;DHT22;12030;50.376;8.762;2023-06-22T10:40:19;31.10;99.90
23703;DHT22;12030;50.376;8.762;2023-06-22T10:42:45;31.30;99.90
23703;DHT22;12030;50.376;8.762;2023-06-22T10:45:11;31.50;99.90
23703;DHT22;12030;50.376;8.762;2023-06-22T10:47:36;31.70;99.80
23703;DHT22;12030;50.376;8.762;2023-06-22T10:50:03;31.50;99.30
23703;DHT22;12030;50.376;8.762;2023-06-22T10:52:29;31.70;99.90
23703;DHT22;12030;50.376;8.762;2023-06-22T10:54:54;31.90;99.20
23703;DHT22;12030;50.376;8.762;2023-06-22T10:57:20;31.90;98.70
23703;DHT22;12030;50.376;8.762;2023-06-22T10:59:46;32.10;98.60
23703;DHT22;12030;50.376;8.762;2023-06-22T11:02:11;32.20;97.90
23703;DHT22;12030;50.376;8.762;2023-06-22T11:04:37;32.00;96.70
23703;DHT22;12030;50.376;8.762;2023-06-22T11:07:03;32.30;96.00
23703;DHT22;12030;50.376;8.762;2023-06-22T11:09:29;32.10;96.10
23703;DHT22;12030;50.376;8.762;2023-06-22T11:11:56;32.10;95.80
23703;DHT22;12030;50.376;8.762;2023-06-22T11:14:21;32.10;95.60
23703;DHT22;12030;50.376;8.762;2023-06-22T11:16:48;32.00;95.50
23703;DHT22;12030;50.376;8.762;2023-06-22T11:19:13;32.10;96.70
23703;DHT22;12030;50.376;8.762;2023-06-22T11:21:39;32.30;97.40
23703;DHT22;12030;50.376;8.762;2023-06-22T11:24:05;32.60;95.40
23703;DHT22;12030;50.376;8.762;2023-06-22T11:26:30;32.70;95.80
23703;DHT22;12030;50.376;8.762;2023-06-22T11:28:57;33.10;96.10
23703;DHT22;12030;50.376;8.762;2023-06-22T11:31:23;33.10;94.20
23703;DHT22;12030;50.376;8.762;2023-06-22T11:33:49;32.90;94.40
23703;DHT22;12030;50.376;8.762;2023-06-22T11:36:15;32.90;94.40
23703;DHT22;12030;50.376;8.762;2023-06-22T11:38:41;33.30;93.40
23703;DHT22;12030;50.376;8.762;2023-06-22T11:41:07;33.10;93.80
23703;DHT22;12030;50.376;8.762;2023-06-22T11:43:33;33.10;93.60
23703;DHT22;12030;50.376;8.762;2023-06-22T11:45:59;32.90;93.40
23703;DHT22;12030;50.376;8.762;2023-06-22T11:48:25;33.10;93.20
23703;DHT22;12030;50.376;8.762;2023-06-22T11:50:51;33.00;93.10
23703;DHT22;12030;50.376;8.762;2023-06-22T11:53:16;33.20;93.30
23703;DHT22;12030;50.376;8.762;2023-06-22T11:55:43;33.30;92.70
23703;DHT22;12030;50.376;8.762;2023-06-22T11:58:08;33.50;92.70
23703;DHT22;12030;50.376;8.762;2023-06-22T12:00:34;33.50;92.10
23703;DHT22;12030;50.376;8.762;2023-06-22T12:02:59;33.40;92.60
23703;DHT22;12030;50.376;8.762;2023-06-22T12:05:25;33.30;92.20
23703;DHT22;12030;50.376;8.762;2023-06-22T12:07:53;33.10;92.20
23703;DHT22;12030;50.376;8.762;2023-06-22T12:10:19;32.90;92.40
23703;DHT22;12030;50.376;8.762;2023-06-22T12:12:44;32.80;92.80
23703;DHT22;12030;50.376;8.762;2023-06-22T12:15:10;33.10;93.00
23703;DHT22;12030;50.376;8.762;2023-06-22T12:17:36;33.00;92.20
23703;DHT22;12030;50.376;8.762;2023-06-22T12:20:02;33.20;92.90
23703;DHT22;12030;50.376;8.762;2023-06-22T12:22:34;33.50;93.40
23703;DHT22;12030;50.376;8.762;2023-06-22T12:25:00;33.70;92.60
23703;DHT22;12030;50.376;8.762;2023-06-22T12:27:26;34.00;92.90
23703;DHT22;12030;50.376;8.762;2023-06-22T12:29:52;34.00;91.30
23703;DHT22;12030;50.376;8.762;2023-06-22T12:32:17;34.30;91.50
23703;DHT22;12030;50.376;8.762;2023-06-22T12:34:43;34.10;90.10
23703;DHT22;12030;50.376;8.762;2023-06-22T12:37:09;34.30;91.80
23703;DHT22;12030;50.376;8.762;2023-06-22T12:39:34;34.60;90.50
23703;DHT22;12030;50.376;8.762;2023-06-22T12:42:00;34.80;90.40
23703;DHT22;12030;50.376;8.762;2023-06-22T12:44:26;35.10;91.40
23703;DHT22;12030;50.376;8.762;2023-06-22T12:46:51;35.40;91.20
23703;DHT22;12030;50.376;8.762;2023-06-22T12:49:17;35.30;91.10
23703;DHT22;12030;50.376;8.762;2023-06-22T12:51:43;35.40;90.90
23703;DHT22;12030;50.376;8.762;2023-06-22T12:54:09;35.60;90.00
23703;DHT22;12030;50.376;8.762;2023-06-22T12:56:35;35.80;91.30
23703;DHT22;12030;50.376;8.762;2023-06-22T12:59:01;35.50;89.30
23703;DHT22;12030;50.376;8.762;2023-06-22T13:01:27;35.50;89.70
23703;DHT22;12030;50.376;8.762;2023-06-22T13:03:53;35.40;90.10
23703;DHT22;12030;50.376;8.762;2023-06-22T13:06:18;35.30;89.30
23703;DHT22;12030;50.376;8.762;2023-06-22T13:08:44;34.60;90.10
23703;DHT22;12030;50.376;8.762;2023-06-22T13:11:09;34.60;90.40
23703;DHT22;12030;50.376;8.762;2023-06-22T13:13:35;35.00;90.40
23703;DHT22;12030;50.376;8.762;2023-06-22T13:16:01;35.40;89.70
23703;DHT22;12030;50.376;8.762;2023-06-22T13:18:26;35.70;88.90
23703;DHT22;12030;50.376;8.762;2023-06-22T13:20:52;35.90;87.90
23703;DHT22;12030;50.376;8.762;2023-06-22T13:23:22;36.10;84.90
23703;DHT22;12030;50.376;8.762;2023-06-22T13:25:48;35.60;87.20
23703;DHT22;12030;50.376;8.762;2023-06-22T13:28:14;35.60;87.80
23703;DHT22;12030;50.376;8.762;2023-06-22T13:30:41;35.70;88.00
23703;DHT22;12030;50.376;8.762;2023-06-22T13:33:07;35.80;88.00
23703;DHT22;12030;50.376;8.762;2023-06-22T13:35:33;35.50;88.60
23703;DHT22;12030;50.376;8.762;2023-06-22T13:38:00;35.60;89.90
23703;DHT22;12030;50.376;8.762;2023-06-22T13:40:26;35.50;89.30
23703;DHT22;12030;50.376;8.762;2023-06-22T13:42:51;35.60;89.40
23703;DHT22;12030;50.376;8.762;2023-06-22T13:45:17;35.50;89.30
23703;DHT22;12030;50.376;8.762;2023-06-22T13:47:44;35.60;89.60
23703;DHT22;12030;50.376;8.762;2023-06-22T13:50:09;35.70;90.30
23703;DHT22;12030;50.376;8.762;2023-06-22T13:52:35;35.80;90.10
23703;DHT22;12030;50.376;8.762;2023-06-22T13:55:01;35.80;89.70
23703;DHT22;12030;50.376;8.762;2023-06-22T13:57:27;36.20;88.10
23703;DHT22;12030;50.376;8.762;2023-06-22T13:59:53;36.20;87.30
23703;DHT22;12030;50.376;8.762;2023-06-22T14:02:18;36.40;86.50
23703;DHT22;12030;50.376;8.762;2023-06-22T14:04:44;36.20;86.00
23703;DHT22;12030;50.376;8.762;2023-06-22T14:07:09;36.50;86.70
23703;DHT22;12030;50.376;8.762;2023-06-22T14:09:35;36.60;85.10
23703;DHT22;12030;50.376;8.762;2023-06-22T14:12:07;36.80;83.60
23703;DHT22;12030;50.376;8.762;2023-06-22T14:14:33;36.80;82.90
23703;DHT22;12030;50.376;8.762;2023-06-22T14:16:59;36.70;81.90
23703;DHT22;12030;50.376;8.762;2023-06-22T14:19:24;36.50;82.20
23703;DHT22;12030;50.376;8.762;2023-06-22T14:21:50;36.10;82.50
23703;DHT22;12030;50.376;8.762;2023-06-22T14:24:15;35.60;83.60
23703;DHT22;12030;50.376;8.762;2023-06-22T14:26:41;34.90;84.90
23703;DHT22;12030;50.376;8.762;2023-06-22T14:29:07;34.50;86.30
23703;DHT22;12030;50.376;8.762;2023-06-22T14:31:32;34.10;87.50
23703;DHT22;12030;50.376;8.762;2023-06-22T14:33:58;33.70;88.60
23703;DHT22;12030;50.376;8.762;2023-06-22T14:36:23;33.20;90.10
23703;DHT22;12030;50.376;8.762;2023-06-22T14:38:49;32.90;90.60
23703;DHT22;12030;50.376;8.762;2023-06-22T14:41:14;32.70;91.00
23703;DHT22;12030;50.376;8.762;2023-06-22T14:43:49;32.40;91.20
23703;DHT22;12030;50.376;8.762;2023-06-22T14:46:18;32.10;91.90
23703;DHT22;12030;50.376;8.762;2023-06-22T14:48:44;32.00;92.50
23703;DHT22;12030;50.376;8.762;2023-06-22T14:51:10;31.90;92.70
23703;DHT22;12030;50.376;8.762;2023-06-22T14:53:36;31.80;92.80
23703;DHT22;12030;50.376;8.762;2023-06-22T14:56:02;31.70;93.40
23703;DHT22;12030;50.376;8.762;2023-06-22T14:58:32;31.50;93.10
23703;DHT22;12030;50.376;8.762;2023-06-22T15:01:04;31.40;93.30
23703;DHT22;12030;50.376;8.762;2023-06-22T15:03:33;31.30;94.00
23703;DHT22;12030;50.376;8.762;2023-06-22T15:06:01;31.20;93.80
23703;DHT22;12030;50.376;8.762;2023-06-22T15:08:26;31.10;95.30
23703;DHT22;12030;50.376;8.762;2023-06-22T15:10:52;31.00;94.50
23703;DHT22;12030;50.376;8.762;2023-06-22T15:13:18;31.00;95.60
23703;DHT22;12030;50.376;8.762;2023-06-22T15:15:46;29.50;94.70
23703;DHT22;12030;50.376;8.762;2023-06-22T15:18:15;30.80;95.50
23703;DHT22;12030;50.376;8.762;2023-06-22T15:20:42;30.80;95.80
23703;DHT22;12030;50.376;8.762;2023-06-22T15:23:10;30.70;95.90
23703;DHT22;12030;50.376;8.762;2023-06-22T15:25:35;30.70;96.70
23703;DHT22;12030;50.376;8.762;2023-06-22T15:28:01;30.50;97.10
23703;DHT22;12030;50.376;8.762;2023-06-22T15:30:28;30.40;98.10
23703;DHT22;12030;50.376;8.762;2023-06-22T15:32:53;30.40;98.00